メインページ
METAR-TAF:

METAR-TAF

空港 :

サスカトゥーン・ジョン・G・ディーフェンベーカー国際空港

サスカトゥーン, サスカチュワン州, カナダ

緯度: 52-10N, 経度: 106-41W, 海抜: 501m

現時点の気象観測

当レポートは23分前の03:00(UTC)に作成
北東の風 13kt
気温 -4°C
湿度 86%
気圧 1017 hPa
視程: 24.1km
高度1000ftの曇り

METAR: CYXE 160300Z 05013KT 15SM OVC010 M04/M06 A3002 RMK ST8 SLP200

時間: 21:23 (03:23 UTC)

予報

当レポートは2時間58分前の00:25(UTC)に作成
予報は16日の 00時(UTC)から 16日の 24時(UTC)まで有効
北東の風 9kt
視程: 10km
高度800ftの雲は散在している
高度2000ftの曇り
16日の 00時(UTC)から 16日の 03時(UTC)まで一時的に
視程: 8.0km
高度800ftの千切れ雲あり
高度2000ftの曇り
小雪, 靄
16日の 0300時(UTC)から
北東の風 10kt
視程: 10km
高度1200ftの曇り
16日の 03時(UTC)から 16日の 15時(UTC)まで一時的に
高度800ftの曇り
小雪, 靄
16日の 1500時(UTC)から
北/北東の風 10kt
視程: 10km
高度2000ftの千切れ雲あり

TAF: CYXE 160025Z 1600/1624 05009KT P6SM SCT008 OVC020 TEMPO 1600/1603 5SM -SN BR BKN008 OVC020 FM160300 04010KT P6SM OVC012 TEMPO 1603/1615 21/2SM -SN BR OVC008 FM161500 02010KT P6SM BKN020 RMK NXT FCST BY 160600Z

4,000以上の空港の気象観測と天気予報(METAR報とTAF報)

利用可能な観測所は地図上に黄色い丸と赤い丸で示す。

丸の上にカーソルを重ねると観測所名を参照できる。

次にクリックすると気象観測と天気予報を参照できる。

マップの切り替え:黒色「×」印の緑ボタンをクリックして拡大、「-」印の緑ボタンをクリックして縮小、緑色の三角印をクリックして隣りの地図に切り替え


METAR-TAF: